sensor_id;sensor_type;location;lat;lon;timestamp;temperature;humidity
10538;DHT22;5317;49.048;8.468;2023-05-31T00:01:14;20.20;44.10
10538;DHT22;5317;49.048;8.468;2023-05-31T00:03:43;20.20;43.70
10538;DHT22;5317;49.048;8.468;2023-05-31T00:06:10;20.20;43.90
10538;DHT22;5317;49.048;8.468;2023-05-31T00:08:37;20.20;43.60
10538;DHT22;5317;49.048;8.468;2023-05-31T00:11:05;20.20;43.40
10538;DHT22;5317;49.048;8.468;2023-05-31T00:13:32;20.20;43.80
10538;DHT22;5317;49.048;8.468;2023-05-31T00:15:59;20.20;43.40
10538;DHT22;5317;49.048;8.468;2023-05-31T00:18:26;20.20;43.20
10538;DHT22;5317;49.048;8.468;2023-05-31T00:20:54;20.30;43.20
10538;DHT22;5317;49.048;8.468;2023-05-31T00:23:21;20.30;43.30
10538;DHT22;5317;49.048;8.468;2023-05-31T00:25:48;20.30;43.20
10538;DHT22;5317;49.048;8.468;2023-05-31T00:28:15;20.40;43.20
10538;DHT22;5317;49.048;8.468;2023-05-31T00:30:42;20.40;43.00
10538;DHT22;5317;49.048;8.468;2023-05-31T00:33:09;20.40;42.90
10538;DHT22;5317;49.048;8.468;2023-05-31T00:35:37;20.50;42.90
10538;DHT22;5317;49.048;8.468;2023-05-31T00:38:06;20.50;43.00
10538;DHT22;5317;49.048;8.468;2023-05-31T00:40:34;20.50;43.00
10538;DHT22;5317;49.048;8.468;2023-05-31T00:43:01;20.50;43.00
10538;DHT22;5317;49.048;8.468;2023-05-31T00:45:28;20.50;43.00
10538;DHT22;5317;49.048;8.468;2023-05-31T00:47:55;20.50;42.80
10538;DHT22;5317;49.048;8.468;2023-05-31T00:50:22;20.50;42.90
10538;DHT22;5317;49.048;8.468;2023-05-31T00:52:51;20.50;43.00
10538;DHT22;5317;49.048;8.468;2023-05-31T00:55:21;20.50;43.10
10538;DHT22;5317;49.048;8.468;2023-05-31T00:57:48;20.50;43.20
10538;DHT22;5317;49.048;8.468;2023-05-31T01:00:15;20.50;42.80
10538;DHT22;5317;49.048;8.468;2023-05-31T01:02:43;20.50;42.90
10538;DHT22;5317;49.048;8.468;2023-05-31T01:05:10;20.50;43.10
10538;DHT22;5317;49.048;8.468;2023-05-31T01:07:37;20.50;43.10
10538;DHT22;5317;49.048;8.468;2023-05-31T01:10:06;20.50;43.20
10538;DHT22;5317;49.048;8.468;2023-05-31T01:12:41;20.50;43.30
10538;DHT22;5317;49.048;8.468;2023-05-31T01:15:13;20.40;43.20
10538;DHT22;5317;49.048;8.468;2023-05-31T01:17:49;20.40;43.20
10538;DHT22;5317;49.048;8.468;2023-05-31T01:20:23;20.40;43.20
10538;DHT22;5317;49.048;8.468;2023-05-31T01:23:04;20.50;43.20
10538;DHT22;5317;49.048;8.468;2023-05-31T01:25:44;20.50;43.20
10538;DHT22;5317;49.048;8.468;2023-05-31T01:28:14;20.40;43.30
10538;DHT22;5317;49.048;8.468;2023-05-31T01:30:44;20.40;43.30
10538;DHT22;5317;49.048;8.468;2023-05-31T01:33:12;20.40;43.40
10538;DHT22;5317;49.048;8.468;2023-05-31T01:35:40;20.40;43.40
10538;DHT22;5317;49.048;8.468;2023-05-31T01:38:07;20.40;43.30
10538;DHT22;5317;49.048;8.468;2023-05-31T01:40:34;20.40;43.40
10538;DHT22;5317;49.048;8.468;2023-05-31T01:43:03;20.40;43.40
10538;DHT22;5317;49.048;8.468;2023-05-31T01:45:32;20.40;43.50
10538;DHT22;5317;49.048;8.468;2023-05-31T01:48:02;20.40;43.60
10538;DHT22;5317;49.048;8.468;2023-05-31T01:50:30;20.40;43.60
10538;DHT22;5317;49.048;8.468;2023-05-31T01:52:58;20.40;43.90
10538;DHT22;5317;49.048;8.468;2023-05-31T01:55:25;20.40;43.60
10538;DHT22;5317;49.048;8.468;2023-05-31T01:57:52;20.30;43.50
10538;DHT22;5317;49.048;8.468;2023-05-31T02:00:21;20.30;43.60
10538;DHT22;5317;49.048;8.468;2023-05-31T02:02:51;20.30;43.70
10538;DHT22;5317;49.048;8.468;2023-05-31T02:05:18;20.20;44.00
10538;DHT22;5317;49.048;8.468;2023-05-31T02:07:45;20.20;44.20
10538;DHT22;5317;49.048;8.468;2023-05-31T02:10:12;20.20;44.50
10538;DHT22;5317;49.048;8.468;2023-05-31T02:12:39;20.10;44.70
10538;DHT22;5317;49.048;8.468;2023-05-31T02:15:07;20.10;44.90
10538;DHT22;5317;49.048;8.468;2023-05-31T02:17:36;20.00;44.80
10538;DHT22;5317;49.048;8.468;2023-05-31T02:20:08;20.00;44.80
10538;DHT22;5317;49.048;8.468;2023-05-31T02:22:35;20.00;44.70
10538;DHT22;5317;49.048;8.468;2023-05-31T02:25:03;20.00;44.80
10538;DHT22;5317;49.048;8.468;2023-05-31T02:27:30;19.90;44.70
10538;DHT22;5317;49.048;8.468;2023-05-31T02:29:58;19.90;44.70
10538;DHT22;5317;49.048;8.468;2023-05-31T02:32:24;19.90;44.70
10538;DHT22;5317;49.048;8.468;2023-05-31T02:34:51;19.90;44.90
10538;DHT22;5317;49.048;8.468;2023-05-31T02:37:20;19.90;44.70
10538;DHT22;5317;49.048;8.468;2023-05-31T02:39:46;19.80;44.90
10538;DHT22;5317;49.048;8.468;2023-05-31T02:42:14;19.80;45.00
10538;DHT22;5317;49.048;8.468;2023-05-31T02:44:42;19.80;44.50
10538;DHT22;5317;49.048;8.468;2023-05-31T02:47:09;19.80;45.20
10538;DHT22;5317;49.048;8.468;2023-05-31T02:49:35;19.70;45.00
10538;DHT22;5317;49.048;8.468;2023-05-31T02:52:03;19.70;45.20
10538;DHT22;5317;49.048;8.468;2023-05-31T02:54:31;19.70;45.40
10538;DHT22;5317;49.048;8.468;2023-05-31T02:56:58;19.70;45.30
10538;DHT22;5317;49.048;8.468;2023-05-31T02:59:25;19.70;45.40
10538;DHT22;5317;49.048;8.468;2023-05-31T03:01:52;19.60;45.40
10538;DHT22;5317;49.048;8.468;2023-05-31T03:04:19;19.60;45.40
10538;DHT22;5317;49.048;8.468;2023-05-31T03:06:46;19.60;45.60
10538;DHT22;5317;49.048;8.468;2023-05-31T03:09:13;19.60;45.80
10538;DHT22;5317;49.048;8.468;2023-05-31T03:11:43;19.60;45.80
10538;DHT22;5317;49.048;8.468;2023-05-31T03:14:10;19.60;46.00
10538;DHT22;5317;49.048;8.468;2023-05-31T03:16:37;19.50;46.00
10538;DHT22;5317;49.048;8.468;2023-05-31T03:19:04;19.50;46.10
10538;DHT22;5317;49.048;8.468;2023-05-31T03:21:31;19.50;46.10
10538;DHT22;5317;49.048;8.468;2023-05-31T03:23:58;19.50;46.10
10538;DHT22;5317;49.048;8.468;2023-05-31T03:26:25;19.40;46.20
10538;DHT22;5317;49.048;8.468;2023-05-31T03:28:54;19.40;46.40
10538;DHT22;5317;49.048;8.468;2023-05-31T03:31:21;19.40;46.50
10538;DHT22;5317;49.048;8.468;2023-05-31T03:33:47;19.40;46.40
10538;DHT22;5317;49.048;8.468;2023-05-31T03:36:14;19.40;46.50
10538;DHT22;5317;49.048;8.468;2023-05-31T03:38:41;19.40;46.60
10538;DHT22;5317;49.048;8.468;2023-05-31T03:41:08;19.40;46.50
10538;DHT22;5317;49.048;8.468;2023-05-31T03:43:35;19.40;46.60
10538;DHT22;5317;49.048;8.468;2023-05-31T03:46:03;19.40;46.80
10538;DHT22;5317;49.048;8.468;2023-05-31T03:48:30;19.30;46.90
10538;DHT22;5317;49.048;8.468;2023-05-31T03:50:59;19.30;46.90
10538;DHT22;5317;49.048;8.468;2023-05-31T03:53:26;19.30;47.10
10538;DHT22;5317;49.048;8.468;2023-05-31T03:55:53;19.30;47.10
10538;DHT22;5317;49.048;8.468;2023-05-31T03:58:20;19.30;47.10
10538;DHT22;5317;49.048;8.468;2023-05-31T04:00:47;19.30;47.10
10538;DHT22;5317;49.048;8.468;2023-05-31T04:03:15;19.30;47.10
10538;DHT22;5317;49.048;8.468;2023-05-31T04:05:43;19.30;47.10
10538;DHT22;5317;49.048;8.468;2023-05-31T04:08:10;19.30;47.20
10538;DHT22;5317;49.048;8.468;2023-05-31T04:10:37;19.30;47.30
10538;DHT22;5317;49.048;8.468;2023-05-31T04:13:04;19.30;47.20
10538;DHT22;5317;49.048;8.468;2023-05-31T04:15:31;19.30;47.30
10538;DHT22;5317;49.048;8.468;2023-05-31T04:17:58;19.30;47.30
10538;DHT22;5317;49.048;8.468;2023-05-31T04:20:26;19.40;47.60
10538;DHT22;5317;49.048;8.468;2023-05-31T04:22:53;19.40;47.50
10538;DHT22;5317;49.048;8.468;2023-05-31T04:25:20;19.40;47.70
10538;DHT22;5317;49.048;8.468;2023-05-31T04:27:47;19.40;48.10
10538;DHT22;5317;49.048;8.468;2023-05-31T04:30:15;19.40;48.40
10538;DHT22;5317;49.048;8.468;2023-05-31T04:32:42;19.40;48.40
10538;DHT22;5317;49.048;8.468;2023-05-31T04:35:09;19.40;48.60
10538;DHT22;5317;49.048;8.468;2023-05-31T04:37:38;19.40;48.60
10538;DHT22;5317;49.048;8.468;2023-05-31T04:40:06;19.50;49.20
10538;DHT22;5317;49.048;8.468;2023-05-31T04:42:35;19.50;49.40
10538;DHT22;5317;49.048;8.468;2023-05-31T04:45:02;19.50;49.60
10538;DHT22;5317;49.048;8.468;2023-05-31T04:47:30;19.40;49.70
10538;DHT22;5317;49.048;8.468;2023-05-31T04:49:57;19.50;49.90
10538;DHT22;5317;49.048;8.468;2023-05-31T04:52:26;19.50;49.40
10538;DHT22;5317;49.048;8.468;2023-05-31T04:54:57;19.50;49.70
10538;DHT22;5317;49.048;8.468;2023-05-31T04:57:24;19.50;50.20
10538;DHT22;5317;49.048;8.468;2023-05-31T04:59:52;19.50;50.80
10538;DHT22;5317;49.048;8.468;2023-05-31T05:02:19;19.60;50.20
10538;DHT22;5317;49.048;8.468;2023-05-31T05:04:46;19.60;50.20
10538;DHT22;5317;49.048;8.468;2023-05-31T05:07:14;19.60;50.40
10538;DHT22;5317;49.048;8.468;2023-05-31T05:09:41;19.60;50.20
10538;DHT22;5317;49.048;8.468;2023-05-31T05:12:11;19.70;49.90
10538;DHT22;5317;49.048;8.468;2023-05-31T05:14:38;19.70;49.90
10538;DHT22;5317;49.048;8.468;2023-05-31T05:17:05;19.80;49.80
10538;DHT22;5317;49.048;8.468;2023-05-31T05:19:32;19.80;49.80
10538;DHT22;5317;49.048;8.468;2023-05-31T05:21:59;19.80;49.70
10538;DHT22;5317;49.048;8.468;2023-05-31T05:24:26;19.80;49.50
10538;DHT22;5317;49.048;8.468;2023-05-31T05:26:53;19.90;49.60
10538;DHT22;5317;49.048;8.468;2023-05-31T05:29:22;19.90;49.20
10538;DHT22;5317;49.048;8.468;2023-05-31T05:31:49;20.00;49.30
10538;DHT22;5317;49.048;8.468;2023-05-31T05:34:16;20.00;49.30
10538;DHT22;5317;49.048;8.468;2023-05-31T05:36:43;20.10;49.60
10538;DHT22;5317;49.048;8.468;2023-05-31T05:39:10;20.10;49.20
10538;DHT22;5317;49.048;8.468;2023-05-31T05:41:37;20.20;49.30
10538;DHT22;5317;49.048;8.468;2023-05-31T05:44:04;20.20;49.50
10538;DHT22;5317;49.048;8.468;2023-05-31T05:46:32;20.20;49.30
10538;DHT22;5317;49.048;8.468;2023-05-31T05:48:59;20.20;49.20
10538;DHT22;5317;49.048;8.468;2023-05-31T05:51:26;20.30;48.80
10538;DHT22;5317;49.048;8.468;2023-05-31T05:53:53;20.30;49.00
10538;DHT22;5317;49.048;8.468;2023-05-31T05:56:20;20.40;48.90
10538;DHT22;5317;49.048;8.468;2023-05-31T05:58:47;20.40;48.70
10538;DHT22;5317;49.048;8.468;2023-05-31T06:01:14;20.50;49.00
10538;DHT22;5317;49.048;8.468;2023-05-31T06:03:45;20.60;48.40
10538;DHT22;5317;49.048;8.468;2023-05-31T06:06:12;20.60;48.20
10538;DHT22;5317;49.048;8.468;2023-05-31T06:08:40;20.70;48.40
10538;DHT22;5317;49.048;8.468;2023-05-31T06:11:07;20.70;47.50
10538;DHT22;5317;49.048;8.468;2023-05-31T06:13:33;20.80;47.60
10538;DHT22;5317;49.048;8.468;2023-05-31T06:16:03;20.80;47.30
10538;DHT22;5317;49.048;8.468;2023-05-31T06:18:30;20.80;47.30
10538;DHT22;5317;49.048;8.468;2023-05-31T06:20:58;20.90;47.30
10538;DHT22;5317;49.048;8.468;2023-05-31T06:23:25;21.00;47.80
10538;DHT22;5317;49.048;8.468;2023-05-31T06:25:52;21.00;47.30
10538;DHT22;5317;49.048;8.468;2023-05-31T06:28:19;21.10;47.30
10538;DHT22;5317;49.048;8.468;2023-05-31T06:30:46;21.10;47.00
10538;DHT22;5317;49.048;8.468;2023-05-31T06:33:13;21.10;46.90
10538;DHT22;5317;49.048;8.468;2023-05-31T06:35:40;21.20;46.80
10538;DHT22;5317;49.048;8.468;2023-05-31T06:38:10;21.20;46.70
10538;DHT22;5317;49.048;8.468;2023-05-31T06:40:41;21.30;47.10
10538;DHT22;5317;49.048;8.468;2023-05-31T06:43:08;21.40;47.20
10538;DHT22;5317;49.048;8.468;2023-05-31T06:45:34;21.50;46.70
10538;DHT22;5317;49.048;8.468;2023-05-31T06:48:01;21.60;46.70
10538;DHT22;5317;49.048;8.468;2023-05-31T06:50:28;21.70;46.80
10538;DHT22;5317;49.048;8.468;2023-05-31T06:52:55;21.80;46.40
10538;DHT22;5317;49.048;8.468;2023-05-31T06:55:23;21.90;46.40
10538;DHT22;5317;49.048;8.468;2023-05-31T06:57:50;22.00;46.80
10538;DHT22;5317;49.048;8.468;2023-05-31T07:00:18;22.10;46.50
10538;DHT22;5317;49.048;8.468;2023-05-31T07:02:45;22.10;46.40
10538;DHT22;5317;49.048;8.468;2023-05-31T07:05:12;22.20;46.60
10538;DHT22;5317;49.048;8.468;2023-05-31T07:07:39;22.30;47.00
10538;DHT22;5317;49.048;8.468;2023-05-31T07:10:07;22.30;46.30
10538;DHT22;5317;49.048;8.468;2023-05-31T07:12:35;22.40;46.80
10538;DHT22;5317;49.048;8.468;2023-05-31T07:15:02;22.50;45.80
10538;DHT22;5317;49.048;8.468;2023-05-31T07:17:29;22.50;46.40
10538;DHT22;5317;49.048;8.468;2023-05-31T07:19:56;22.60;46.20
10538;DHT22;5317;49.048;8.468;2023-05-31T07:22:23;22.70;46.50
10538;DHT22;5317;49.048;8.468;2023-05-31T07:24:50;22.80;45.90
10538;DHT22;5317;49.048;8.468;2023-05-31T07:27:18;22.90;45.70
10538;DHT22;5317;49.048;8.468;2023-05-31T07:29:46;23.00;45.80
10538;DHT22;5317;49.048;8.468;2023-05-31T07:32:14;23.00;45.40
10538;DHT22;5317;49.048;8.468;2023-05-31T07:34:40;23.10;45.10
10538;DHT22;5317;49.048;8.468;2023-05-31T07:37:08;23.20;45.40
10538;DHT22;5317;49.048;8.468;2023-05-31T07:39:34;23.20;44.90
10538;DHT22;5317;49.048;8.468;2023-05-31T07:42:01;23.30;45.30
10538;DHT22;5317;49.048;8.468;2023-05-31T07:44:29;23.50;45.50
10538;DHT22;5317;49.048;8.468;2023-05-31T07:46:58;23.50;44.80
10538;DHT22;5317;49.048;8.468;2023-05-31T07:49:25;23.60;45.00
10538;DHT22;5317;49.048;8.468;2023-05-31T07:51:52;23.70;45.10
10538;DHT22;5317;49.048;8.468;2023-05-31T07:54:19;23.80;44.70
10538;DHT22;5317;49.048;8.468;2023-05-31T07:56:45;23.90;45.10
10538;DHT22;5317;49.048;8.468;2023-05-31T07:59:12;24.00;44.80
10538;DHT22;5317;49.048;8.468;2023-05-31T08:01:39;24.10;44.60
10538;DHT22;5317;49.048;8.468;2023-05-31T08:04:08;24.10;44.30
10538;DHT22;5317;49.048;8.468;2023-05-31T08:06:35;24.20;45.20
10538;DHT22;5317;49.048;8.468;2023-05-31T08:09:03;24.30;44.40
10538;DHT22;5317;49.048;8.468;2023-05-31T08:11:32;24.40;44.60
10538;DHT22;5317;49.048;8.468;2023-05-31T08:14:00;24.50;44.10
10538;DHT22;5317;49.048;8.468;2023-05-31T08:16:28;24.50;43.70
10538;DHT22;5317;49.048;8.468;2023-05-31T08:18:55;24.60;43.10
10538;DHT22;5317;49.048;8.468;2023-05-31T08:21:23;24.60;43.40
10538;DHT22;5317;49.048;8.468;2023-05-31T08:23:50;24.70;44.30
10538;DHT22;5317;49.048;8.468;2023-05-31T08:26:17;24.80;44.00
10538;DHT22;5317;49.048;8.468;2023-05-31T08:28:44;24.90;43.90
10538;DHT22;5317;49.048;8.468;2023-05-31T08:31:11;25.00;44.10
10538;DHT22;5317;49.048;8.468;2023-05-31T08:33:52;25.00;43.50
10538;DHT22;5317;49.048;8.468;2023-05-31T08:36:19;25.10;43.70
10538;DHT22;5317;49.048;8.468;2023-05-31T08:38:47;25.20;43.30
10538;DHT22;5317;49.048;8.468;2023-05-31T08:41:15;25.20;42.90
10538;DHT22;5317;49.048;8.468;2023-05-31T08:43:42;25.30;43.00
10538;DHT22;5317;49.048;8.468;2023-05-31T08:46:10;25.40;43.00
10538;DHT22;5317;49.048;8.468;2023-05-31T08:48:42;25.50;43.00
10538;DHT22;5317;49.048;8.468;2023-05-31T08:51:10;25.60;43.30
10538;DHT22;5317;49.048;8.468;2023-05-31T08:53:37;25.70;42.60
10538;DHT22;5317;49.048;8.468;2023-05-31T08:56:07;25.80;43.30
10538;DHT22;5317;49.048;8.468;2023-05-31T08:58:35;25.80;42.90
10538;DHT22;5317;49.048;8.468;2023-05-31T09:01:02;25.90;42.70
10538;DHT22;5317;49.048;8.468;2023-05-31T09:03:31;26.00;43.30
10538;DHT22;5317;49.048;8.468;2023-05-31T09:05:58;26.10;42.60
10538;DHT22;5317;49.048;8.468;2023-05-31T09:08:25;26.10;42.70
10538;DHT22;5317;49.048;8.468;2023-05-31T09:10:52;26.20;41.90
10538;DHT22;5317;49.048;8.468;2023-05-31T09:13:21;26.30;42.00
10538;DHT22;5317;49.048;8.468;2023-05-31T09:15:48;26.30;41.60
10538;DHT22;5317;49.048;8.468;2023-05-31T09:18:18;26.40;42.20
10538;DHT22;5317;49.048;8.468;2023-05-31T09:20:46;26.50;41.70
10538;DHT22;5317;49.048;8.468;2023-05-31T09:23:16;26.50;41.20
10538;DHT22;5317;49.048;8.468;2023-05-31T09:25:44;26.60;41.90
10538;DHT22;5317;49.048;8.468;2023-05-31T09:28:12;26.70;41.90
10538;DHT22;5317;49.048;8.468;2023-05-31T09:30:40;26.70;41.30
10538;DHT22;5317;49.048;8.468;2023-05-31T09:33:07;26.80;41.20
10538;DHT22;5317;49.048;8.468;2023-05-31T09:35:34;26.90;41.50
10538;DHT22;5317;49.048;8.468;2023-05-31T09:38:05;27.00;41.90
10538;DHT22;5317;49.048;8.468;2023-05-31T09:40:33;27.10;41.20
10538;DHT22;5317;49.048;8.468;2023-05-31T09:43:00;27.10;41.40
10538;DHT22;5317;49.048;8.468;2023-05-31T09:45:28;27.20;41.00
10538;DHT22;5317;49.048;8.468;2023-05-31T09:47:56;27.20;41.00
10538;DHT22;5317;49.048;8.468;2023-05-31T09:50:24;27.30;40.90
10538;DHT22;5317;49.048;8.468;2023-05-31T09:52:55;27.40;40.80
10538;DHT22;5317;49.048;8.468;2023-05-31T09:55:23;27.40;41.00
10538;DHT22;5317;49.048;8.468;2023-05-31T09:57:52;27.50;40.20
10538;DHT22;5317;49.048;8.468;2023-05-31T10:00:21;27.50;39.80
10538;DHT22;5317;49.048;8.468;2023-05-31T10:02:48;27.50;39.70
10538;DHT22;5317;49.048;8.468;2023-05-31T10:05:18;27.60;39.60
10538;DHT22;5317;49.048;8.468;2023-05-31T10:07:47;27.60;39.70
10538;DHT22;5317;49.048;8.468;2023-05-31T10:10:14;27.80;39.00
10538;DHT22;5317;49.048;8.468;2023-05-31T10:12:49;27.90;39.50
10538;DHT22;5317;49.048;8.468;2023-05-31T10:15:19;28.00;39.40
10538;DHT22;5317;49.048;8.468;2023-05-31T10:17:54;28.00;38.30
10538;DHT22;5317;49.048;8.468;2023-05-31T10:20:25;28.00;38.20
10538;DHT22;5317;49.048;8.468;2023-05-31T10:22:55;28.10;37.50
10538;DHT22;5317;49.048;8.468;2023-05-31T10:25:28;28.20;37.20
10538;DHT22;5317;49.048;8.468;2023-05-31T10:27:59;28.30;37.60
10538;DHT22;5317;49.048;8.468;2023-05-31T10:30:30;28.40;37.00
10538;DHT22;5317;49.048;8.468;2023-05-31T10:33:00;28.40;37.60
10538;DHT22;5317;49.048;8.468;2023-05-31T10:35:31;28.50;36.50
10538;DHT22;5317;49.048;8.468;2023-05-31T10:37:59;28.60;36.90
10538;DHT22;5317;49.048;8.468;2023-05-31T10:40:32;28.70;37.40
10538;DHT22;5317;49.048;8.468;2023-05-31T10:43:05;28.70;35.60
10538;DHT22;5317;49.048;8.468;2023-05-31T10:45:37;28.80;35.10
10538;DHT22;5317;49.048;8.468;2023-05-31T10:48:14;28.90;36.00
10538;DHT22;5317;49.048;8.468;2023-05-31T10:50:53;28.90;35.70
10538;DHT22;5317;49.048;8.468;2023-05-31T10:53:20;29.00;35.90
10538;DHT22;5317;49.048;8.468;2023-05-31T10:55:47;28.90;35.60
10538;DHT22;5317;49.048;8.468;2023-05-31T10:58:26;29.00;35.90
10538;DHT22;5317;49.048;8.468;2023-05-31T11:00:53;29.00;35.80
10538;DHT22;5317;49.048;8.468;2023-05-31T11:03:22;29.00;36.40
10538;DHT22;5317;49.048;8.468;2023-05-31T11:05:58;29.10;35.80
10538;DHT22;5317;49.048;8.468;2023-05-31T11:08:26;29.10;35.00
10538;DHT22;5317;49.048;8.468;2023-05-31T11:11:30;29.10;36.00
10538;DHT22;5317;49.048;8.468;2023-05-31T11:14:24;29.20;33.90
10538;DHT22;5317;49.048;8.468;2023-05-31T11:17:12;29.30;35.60
10538;DHT22;5317;49.048;8.468;2023-05-31T11:19:40;29.30;33.60
10538;DHT22;5317;49.048;8.468;2023-05-31T11:22:09;29.40;34.00
10538;DHT22;5317;49.048;8.468;2023-05-31T11:24:38;29.40;34.70
10538;DHT22;5317;49.048;8.468;2023-05-31T11:27:11;29.50;34.60
10538;DHT22;5317;49.048;8.468;2023-05-31T11:29:55;29.60;35.50
10538;DHT22;5317;49.048;8.468;2023-05-31T11:35:33;29.60;34.60
10538;DHT22;5317;49.048;8.468;2023-05-31T11:38:05;29.70;35.10
10538;DHT22;5317;49.048;8.468;2023-05-31T11:40:33;29.70;35.10
10538;DHT22;5317;49.048;8.468;2023-05-31T11:43:09;29.80;35.90
10538;DHT22;5317;49.048;8.468;2023-05-31T11:45:48;29.90;36.00
10538;DHT22;5317;49.048;8.468;2023-05-31T11:48:34;29.90;35.20
10538;DHT22;5317;49.048;8.468;2023-05-31T11:51:02;30.00;36.00
10538;DHT22;5317;49.048;8.468;2023-05-31T11:53:29;30.10;34.20
10538;DHT22;5317;49.048;8.468;2023-05-31T11:55:57;30.10;34.10
10538;DHT22;5317;49.048;8.468;2023-05-31T11:58:26;30.10;35.60
10538;DHT22;5317;49.048;8.468;2023-05-31T12:00:58;30.10;34.50
10538;DHT22;5317;49.048;8.468;2023-05-31T12:03:25;30.10;34.70
10538;DHT22;5317;49.048;8.468;2023-05-31T12:05:56;30.10;34.20
10538;DHT22;5317;49.048;8.468;2023-05-31T12:08:24;30.10;33.30
10538;DHT22;5317;49.048;8.468;2023-05-31T12:10:51;30.10;33.80
10538;DHT22;5317;49.048;8.468;2023-05-31T12:13:20;30.10;34.10
10538;DHT22;5317;49.048;8.468;2023-05-31T12:15:54;30.10;34.10
10538;DHT22;5317;49.048;8.468;2023-05-31T12:18:21;30.10;34.00
10538;DHT22;5317;49.048;8.468;2023-05-31T12:20:49;30.20;33.60
10538;DHT22;5317;49.048;8.468;2023-05-31T12:23:16;30.30;34.00
10538;DHT22;5317;49.048;8.468;2023-05-31T12:25:48;30.30;34.60
10538;DHT22;5317;49.048;8.468;2023-05-31T12:28:18;30.30;34.90
10538;DHT22;5317;49.048;8.468;2023-05-31T12:30:46;30.30;35.00
10538;DHT22;5317;49.048;8.468;2023-05-31T12:33:14;30.40;34.40
10538;DHT22;5317;49.048;8.468;2023-05-31T12:35:42;30.50;34.40
10538;DHT22;5317;49.048;8.468;2023-05-31T12:38:10;30.50;34.20
10538;DHT22;5317;49.048;8.468;2023-05-31T12:40:37;30.50;34.40
10538;DHT22;5317;49.048;8.468;2023-05-31T12:43:05;30.50;34.40
10538;DHT22;5317;49.048;8.468;2023-05-31T12:45:32;30.60;33.60
10538;DHT22;5317;49.048;8.468;2023-05-31T12:48:04;30.60;33.60
10538;DHT22;5317;49.048;8.468;2023-05-31T12:50:34;30.60;33.50
10538;DHT22;5317;49.048;8.468;2023-05-31T12:53:05;30.50;32.80
10538;DHT22;5317;49.048;8.468;2023-05-31T12:55:32;30.60;33.30
10538;DHT22;5317;49.048;8.468;2023-05-31T12:57:59;30.60;33.80
10538;DHT22;5317;49.048;8.468;2023-05-31T13:00:26;30.70;33.50
10538;DHT22;5317;49.048;8.468;2023-05-31T13:02:53;30.70;33.20
10538;DHT22;5317;49.048;8.468;2023-05-31T13:05:19;30.70;33.00
10538;DHT22;5317;49.048;8.468;2023-05-31T13:07:48;30.70;33.50
10538;DHT22;5317;49.048;8.468;2023-05-31T13:10:15;30.70;33.80
10538;DHT22;5317;49.048;8.468;2023-05-31T13:12:42;30.70;33.70
10538;DHT22;5317;49.048;8.468;2023-05-31T13:15:10;30.80;33.40
10538;DHT22;5317;49.048;8.468;2023-05-31T13:17:37;30.80;32.60
10538;DHT22;5317;49.048;8.468;2023-05-31T13:20:04;30.90;33.00
10538;DHT22;5317;49.048;8.468;2023-05-31T13:22:32;30.90;32.90
10538;DHT22;5317;49.048;8.468;2023-05-31T13:25:01;30.90;32.30
10538;DHT22;5317;49.048;8.468;2023-05-31T13:27:28;30.90;32.60
10538;DHT22;5317;49.048;8.468;2023-05-31T13:29:55;30.90;32.10
10538;DHT22;5317;49.048;8.468;2023-05-31T13:32:22;30.80;31.70
10538;DHT22;5317;49.048;8.468;2023-05-31T13:34:49;30.80;31.50
10538;DHT22;5317;49.048;8.468;2023-05-31T13:37:15;30.90;31.70
10538;DHT22;5317;49.048;8.468;2023-05-31T13:39:46;30.90;32.00
10538;DHT22;5317;49.048;8.468;2023-05-31T13:42:17;31.00;32.30
10538;DHT22;5317;49.048;8.468;2023-05-31T13:44:44;31.00;31.40
10538;DHT22;5317;49.048;8.468;2023-05-31T13:47:11;31.00;30.70
10538;DHT22;5317;49.048;8.468;2023-05-31T13:49:38;30.90;31.60
10538;DHT22;5317;49.048;8.468;2023-05-31T13:52:06;30.90;31.60
10538;DHT22;5317;49.048;8.468;2023-05-31T13:54:35;30.90;31.50
10538;DHT22;5317;49.048;8.468;2023-05-31T13:57:02;31.00;30.70
10538;DHT22;5317;49.048;8.468;2023-05-31T13:59:30;31.00;30.70
10538;DHT22;5317;49.048;8.468;2023-05-31T14:01:57;31.10;30.70
10538;DHT22;5317;49.048;8.468;2023-05-31T14:04:24;31.10;30.50
10538;DHT22;5317;49.048;8.468;2023-05-31T14:06:51;31.10;30.10
10538;DHT22;5317;49.048;8.468;2023-05-31T14:09:18;31.10;30.10
10538;DHT22;5317;49.048;8.468;2023-05-31T14:11:46;31.10;30.50
10538;DHT22;5317;49.048;8.468;2023-05-31T14:14:13;31.10;31.00
10538;DHT22;5317;49.048;8.468;2023-05-31T14:16:41;31.10;30.90
10538;DHT22;5317;49.048;8.468;2023-05-31T14:19:08;31.20;30.40
10538;DHT22;5317;49.048;8.468;2023-05-31T14:21:35;31.20;30.40
10538;DHT22;5317;49.048;8.468;2023-05-31T14:24:02;31.20;30.40
10538;DHT22;5317;49.048;8.468;2023-05-31T14:26:29;31.10;30.10
10538;DHT22;5317;49.048;8.468;2023-05-31T14:28:56;31.10;30.10
10538;DHT22;5317;49.048;8.468;2023-05-31T14:31:23;31.10;30.00
10538;DHT22;5317;49.048;8.468;2023-05-31T14:33:51;31.10;29.90
10538;DHT22;5317;49.048;8.468;2023-05-31T14:36:18;31.10;30.00
10538;DHT22;5317;49.048;8.468;2023-05-31T14:38:45;31.20;30.20
10538;DHT22;5317;49.048;8.468;2023-05-31T14:41:12;31.20;30.30
10538;DHT22;5317;49.048;8.468;2023-05-31T14:43:39;31.10;29.80
10538;DHT22;5317;49.048;8.468;2023-05-31T14:46:06;31.10;29.80
10538;DHT22;5317;49.048;8.468;2023-05-31T14:48:33;31.10;29.80
10538;DHT22;5317;49.048;8.468;2023-05-31T14:51:01;31.00;29.60
10538;DHT22;5317;49.048;8.468;2023-05-31T14:53:28;31.10;29.70
10538;DHT22;5317;49.048;8.468;2023-05-31T14:55:55;31.10;30.70
10538;DHT22;5317;49.048;8.468;2023-05-31T14:58:22;31.10;30.00
10538;DHT22;5317;49.048;8.468;2023-05-31T15:00:49;31.10;29.70
10538;DHT22;5317;49.048;8.468;2023-05-31T15:03:16;31.10;29.90
10538;DHT22;5317;49.048;8.468;2023-05-31T15:05:43;31.00;29.40
10538;DHT22;5317;49.048;8.468;2023-05-31T15:08:11;30.90;29.20
10538;DHT22;5317;49.048;8.468;2023-05-31T15:10:38;30.90;29.40
10538;DHT22;5317;49.048;8.468;2023-05-31T15:13:05;30.90;29.70
10538;DHT22;5317;49.048;8.468;2023-05-31T15:15:32;30.90;29.30
10538;DHT22;5317;49.048;8.468;2023-05-31T15:18:00;30.90;29.30
10538;DHT22;5317;49.048;8.468;2023-05-31T15:20:27;30.90;29.50
10538;DHT22;5317;49.048;8.468;2023-05-31T15:22:54;30.80;29.00
10538;DHT22;5317;49.048;8.468;2023-05-31T15:25:22;30.80;29.70
10538;DHT22;5317;49.048;8.468;2023-05-31T15:27:49;30.80;29.00
10538;DHT22;5317;49.048;8.468;2023-05-31T15:30:16;30.80;29.10
10538;DHT22;5317;49.048;8.468;2023-05-31T15:32:42;30.70;29.00
10538;DHT22;5317;49.048;8.468;2023-05-31T15:35:09;30.70;28.60
10538;DHT22;5317;49.048;8.468;2023-05-31T15:37:36;30.60;28.60
10538;DHT22;5317;49.048;8.468;2023-05-31T15:40:04;30.60;28.80
10538;DHT22;5317;49.048;8.468;2023-05-31T15:42:32;30.60;29.10
10538;DHT22;5317;49.048;8.468;2023-05-31T15:44:59;30.60;28.80
10538;DHT22;5317;49.048;8.468;2023-05-31T15:47:26;30.50;28.40
10538;DHT22;5317;49.048;8.468;2023-05-31T15:49:53;30.50;28.80
10538;DHT22;5317;49.048;8.468;2023-05-31T15:52:20;30.50;29.20
10538;DHT22;5317;49.048;8.468;2023-05-31T15:54:47;30.40;29.00